sensor_id;sensor_type;location;lat;lon;timestamp;P1;durP1;ratioP1;P2;durP2;ratioP2
13114;SDS011;6623;52.120;8.660;2022-12-29T00:00:02;1.57;;;1.00;;
13114;SDS011;6623;52.120;8.660;2022-12-29T00:02:29;1.60;;;0.90;;
13114;SDS011;6623;52.120;8.660;2022-12-29T00:04:54;0.97;;;0.90;;
13114;SDS011;6623;52.120;8.660;2022-12-29T00:07:20;1.10;;;0.90;;
13114;SDS011;6623;52.120;8.660;2022-12-29T00:09:46;1.37;;;1.00;;
13114;SDS011;6623;52.120;8.660;2022-12-29T00:12:11;1.00;;;1.00;;
13114;SDS011;6623;52.120;8.660;2022-12-29T00:14:37;1.03;;;0.90;;
13114;SDS011;6623;52.120;8.660;2022-12-29T00:17:21;2.40;;;1.47;;
13114;SDS011;6623;52.120;8.660;2022-12-29T00:19:46;1.60;;;0.80;;
13114;SDS011;6623;52.120;8.660;2022-12-29T00:22:30;1.47;;;0.90;;
13114;SDS011;6623;52.120;8.660;2022-12-29T00:25:14;1.30;;;0.90;;
13114;SDS011;6623;52.120;8.660;2022-12-29T00:27:58;2.00;;;0.97;;
13114;SDS011;6623;52.120;8.660;2022-12-29T00:30:42;1.03;;;0.90;;
13114;SDS011;6623;52.120;8.660;2022-12-29T00:33:30;1.93;;;0.80;;
13114;SDS011;6623;52.120;8.660;2022-12-29T00:36:20;2.03;;;1.00;;
13114;SDS011;6623;52.120;8.660;2022-12-29T00:39:06;1.43;;;0.80;;
13114;SDS011;6623;52.120;8.660;2022-12-29T00:41:54;1.33;;;0.90;;
13114;SDS011;6623;52.120;8.660;2022-12-29T00:44:37;0.97;;;0.90;;
13114;SDS011;6623;52.120;8.660;2022-12-29T00:47:03;1.10;;;1.00;;
13114;SDS011;6623;52.120;8.660;2022-12-29T00:49:29;0.80;;;0.80;;
13114;SDS011;6623;52.120;8.660;2022-12-29T00:51:56;1.70;;;1.00;;
13114;SDS011;6623;52.120;8.660;2022-12-29T00:54:30;1.30;;;0.90;;
13114;SDS011;6623;52.120;8.660;2022-12-29T00:56:57;1.00;;;0.90;;
13114;SDS011;6623;52.120;8.660;2022-12-29T00:59:23;1.00;;;0.90;;
13114;SDS011;6623;52.120;8.660;2022-12-29T01:01:49;0.97;;;0.70;;
13114;SDS011;6623;52.120;8.660;2022-12-29T01:04:16;1.10;;;0.90;;
13114;SDS011;6623;52.120;8.660;2022-12-29T01:06:42;1.00;;;0.90;;
13114;SDS011;6623;52.120;8.660;2022-12-29T01:09:08;1.33;;;0.83;;
13114;SDS011;6623;52.120;8.660;2022-12-29T01:11:53;1.47;;;0.83;;
13114;SDS011;6623;52.120;8.660;2022-12-29T01:14:19;0.67;;;0.60;;
13114;SDS011;6623;52.120;8.660;2022-12-29T01:16:45;1.47;;;0.90;;
13114;SDS011;6623;52.120;8.660;2022-12-29T01:19:12;2.43;;;0.70;;
13114;SDS011;6623;52.120;8.660;2022-12-29T01:21:38;1.13;;;0.70;;
13114;SDS011;6623;52.120;8.660;2022-12-29T01:24:04;1.33;;;0.80;;
13114;SDS011;6623;52.120;8.660;2022-12-29T01:26:29;0.90;;;0.80;;
13114;SDS011;6623;52.120;8.660;2022-12-29T01:28:55;0.73;;;0.60;;
13114;SDS011;6623;52.120;8.660;2022-12-29T01:31:20;1.07;;;0.90;;
13114;SDS011;6623;52.120;8.660;2022-12-29T01:33:46;0.70;;;0.70;;
13114;SDS011;6623;52.120;8.660;2022-12-29T01:36:15;1.00;;;0.73;;
13114;SDS011;6623;52.120;8.660;2022-12-29T01:38:42;1.60;;;0.80;;
13114;SDS011;6623;52.120;8.660;2022-12-29T01:41:09;0.60;;;0.60;;
13114;SDS011;6623;52.120;8.660;2022-12-29T01:51:33;1.37;;;1.20;;
13114;SDS011;6623;52.120;8.660;2022-12-29T01:54:04;1.00;;;0.90;;
13114;SDS011;6623;52.120;8.660;2022-12-29T01:56:34;0.80;;;0.80;;
13114;SDS011;6623;52.120;8.660;2022-12-29T01:59:02;0.67;;;0.67;;
13114;SDS011;6623;52.120;8.660;2022-12-29T02:01:32;0.53;;;0.53;;
13114;SDS011;6623;52.120;8.660;2022-12-29T02:03:58;0.73;;;0.60;;
13114;SDS011;6623;52.120;8.660;2022-12-29T02:06:26;1.17;;;0.60;;
13114;SDS011;6623;52.120;8.660;2022-12-29T02:08:56;0.40;;;0.40;;
13114;SDS011;6623;52.120;8.660;2022-12-29T02:11:23;1.60;;;0.73;;
13114;SDS011;6623;52.120;8.660;2022-12-29T02:13:51;0.50;;;0.50;;
13114;SDS011;6623;52.120;8.660;2022-12-29T02:33:10;0.63;;;0.63;;
13114;SDS011;6623;52.120;8.660;2022-12-29T02:38:31;0.63;;;0.60;;
13114;SDS011;6623;52.120;8.660;2022-12-29T02:41:19;0.50;;;0.40;;
13114;SDS011;6623;52.120;8.660;2022-12-29T02:46:41;0.40;;;0.40;;
13114;SDS011;6623;52.120;8.660;2022-12-29T02:49:19;1.10;;;0.50;;
13114;SDS011;6623;52.120;8.660;2022-12-29T02:51:52;0.40;;;0.40;;
13114;SDS011;6623;52.120;8.660;2022-12-29T02:54:24;0.53;;;0.50;;
13114;SDS011;6623;52.120;8.660;2022-12-29T02:57:26;0.80;;;0.50;;
13114;SDS011;6623;52.120;8.660;2022-12-29T03:00:00;0.60;;;0.50;;
13114;SDS011;6623;52.120;8.660;2022-12-29T03:05:18;0.50;;;0.40;;
13114;SDS011;6623;52.120;8.660;2022-12-29T03:08:03;0.50;;;0.50;;
13114;SDS011;6623;52.120;8.660;2022-12-29T03:10:54;0.40;;;0.40;;
13114;SDS011;6623;52.120;8.660;2022-12-29T03:13:26;0.70;;;0.40;;
13114;SDS011;6623;52.120;8.660;2022-12-29T03:19:02;2.27;;;0.40;;
13114;SDS011;6623;52.120;8.660;2022-12-29T03:21:34;0.70;;;0.50;;
13114;SDS011;6623;52.120;8.660;2022-12-29T03:24:24;0.40;;;0.40;;
13114;SDS011;6623;52.120;8.660;2022-12-29T03:26:54;0.30;;;0.30;;
13114;SDS011;6623;52.120;8.660;2022-12-29T03:29:21;0.40;;;0.40;;
13114;SDS011;6623;52.120;8.660;2022-12-29T03:31:49;0.50;;;0.50;;
13114;SDS011;6623;52.120;8.660;2022-12-29T03:34:17;0.67;;;0.30;;
13114;SDS011;6623;52.120;8.660;2022-12-29T03:36:50;0.40;;;0.40;;
13114;SDS011;6623;52.120;8.660;2022-12-29T03:39:23;0.23;;;0.23;;
13114;SDS011;6623;52.120;8.660;2022-12-29T03:41:50;1.03;;;0.50;;
13114;SDS011;6623;52.120;8.660;2022-12-29T03:44:30;0.77;;;0.50;;
13114;SDS011;6623;52.120;8.660;2022-12-29T03:47:04;0.40;;;0.40;;
13114;SDS011;6623;52.120;8.660;2022-12-29T03:49:30;0.93;;;0.33;;
13114;SDS011;6623;52.120;8.660;2022-12-29T03:51:56;0.40;;;0.30;;
13114;SDS011;6623;52.120;8.660;2022-12-29T03:54:21;0.70;;;0.37;;
13114;SDS011;6623;52.120;8.660;2022-12-29T03:56:47;0.50;;;0.30;;
13114;SDS011;6623;52.120;8.660;2022-12-29T03:59:12;0.30;;;0.30;;
13114;SDS011;6623;52.120;8.660;2022-12-29T04:01:38;0.37;;;0.33;;
13114;SDS011;6623;52.120;8.660;2022-12-29T04:04:03;0.23;;;0.23;;
13114;SDS011;6623;52.120;8.660;2022-12-29T04:06:29;0.57;;;0.40;;
13114;SDS011;6623;52.120;8.660;2022-12-29T04:08:55;0.20;;;0.20;;
13114;SDS011;6623;52.120;8.660;2022-12-29T04:11:21;0.60;;;0.50;;
13114;SDS011;6623;52.120;8.660;2022-12-29T04:13:47;0.60;;;0.50;;
13114;SDS011;6623;52.120;8.660;2022-12-29T04:16:13;0.33;;;0.33;;
13114;SDS011;6623;52.120;8.660;2022-12-29T04:18:38;0.20;;;0.20;;
13114;SDS011;6623;52.120;8.660;2022-12-29T04:21:04;0.70;;;0.30;;
13114;SDS011;6623;52.120;8.660;2022-12-29T04:23:31;0.37;;;0.37;;
13114;SDS011;6623;52.120;8.660;2022-12-29T04:25:58;0.73;;;0.40;;
13114;SDS011;6623;52.120;8.660;2022-12-29T04:28:24;0.30;;;0.30;;
13114;SDS011;6623;52.120;8.660;2022-12-29T04:30:50;0.97;;;0.50;;
13114;SDS011;6623;52.120;8.660;2022-12-29T04:33:16;0.93;;;0.37;;
13114;SDS011;6623;52.120;8.660;2022-12-29T04:35:42;0.60;;;0.30;;
13114;SDS011;6623;52.120;8.660;2022-12-29T04:38:08;0.40;;;0.30;;
13114;SDS011;6623;52.120;8.660;2022-12-29T04:40:33;1.80;;;0.60;;
13114;SDS011;6623;52.120;8.660;2022-12-29T04:42:59;0.67;;;0.47;;
13114;SDS011;6623;52.120;8.660;2022-12-29T04:45:25;0.57;;;0.40;;
13114;SDS011;6623;52.120;8.660;2022-12-29T04:47:50;0.80;;;0.50;;
13114;SDS011;6623;52.120;8.660;2022-12-29T04:50:16;0.60;;;0.50;;
13114;SDS011;6623;52.120;8.660;2022-12-29T04:52:41;1.33;;;0.60;;
13114;SDS011;6623;52.120;8.660;2022-12-29T04:55:07;1.20;;;0.50;;
13114;SDS011;6623;52.120;8.660;2022-12-29T04:57:32;0.67;;;0.60;;
13114;SDS011;6623;52.120;8.660;2022-12-29T04:59:58;1.30;;;0.50;;
13114;SDS011;6623;52.120;8.660;2022-12-29T05:02:24;0.80;;;0.40;;
13114;SDS011;6623;52.120;8.660;2022-12-29T05:04:49;1.23;;;0.80;;
13114;SDS011;6623;52.120;8.660;2022-12-29T05:07:15;1.43;;;0.50;;
13114;SDS011;6623;52.120;8.660;2022-12-29T05:09:40;1.40;;;0.70;;
13114;SDS011;6623;52.120;8.660;2022-12-29T05:12:06;0.90;;;0.53;;
13114;SDS011;6623;52.120;8.660;2022-12-29T05:14:32;0.60;;;0.50;;
13114;SDS011;6623;52.120;8.660;2022-12-29T05:16:58;0.63;;;0.50;;
13114;SDS011;6623;52.120;8.660;2022-12-29T05:19:23;1.40;;;0.50;;
13114;SDS011;6623;52.120;8.660;2022-12-29T05:21:51;0.57;;;0.57;;
13114;SDS011;6623;52.120;8.660;2022-12-29T05:24:17;0.93;;;0.50;;
13114;SDS011;6623;52.120;8.660;2022-12-29T05:26:43;0.50;;;0.50;;
13114;SDS011;6623;52.120;8.660;2022-12-29T05:29:08;2.57;;;0.50;;
13114;SDS011;6623;52.120;8.660;2022-12-29T05:31:34;0.50;;;0.50;;
13114;SDS011;6623;52.120;8.660;2022-12-29T05:34:00;1.13;;;0.67;;
13114;SDS011;6623;52.120;8.660;2022-12-29T05:36:26;1.23;;;0.50;;
13114;SDS011;6623;52.120;8.660;2022-12-29T05:38:52;0.67;;;0.50;;
13114;SDS011;6623;52.120;8.660;2022-12-29T05:41:18;4.23;;;0.70;;
13114;SDS011;6623;52.120;8.660;2022-12-29T05:43:43;0.70;;;0.50;;
13114;SDS011;6623;52.120;8.660;2022-12-29T05:46:09;0.70;;;0.43;;
13114;SDS011;6623;52.120;8.660;2022-12-29T05:48:34;0.50;;;0.50;;
13114;SDS011;6623;52.120;8.660;2022-12-29T05:51:00;1.17;;;0.60;;
13114;SDS011;6623;52.120;8.660;2022-12-29T05:53:25;0.73;;;0.50;;
13114;SDS011;6623;52.120;8.660;2022-12-29T05:55:51;0.47;;;0.37;;
13114;SDS011;6623;52.120;8.660;2022-12-29T05:58:17;1.50;;;0.40;;
13114;SDS011;6623;52.120;8.660;2022-12-29T06:00:43;0.30;;;0.30;;
13114;SDS011;6623;52.120;8.660;2022-12-29T06:03:09;0.60;;;0.50;;
13114;SDS011;6623;52.120;8.660;2022-12-29T06:05:34;0.50;;;0.33;;
13114;SDS011;6623;52.120;8.660;2022-12-29T06:08:00;1.73;;;0.40;;
13114;SDS011;6623;52.120;8.660;2022-12-29T06:10:26;0.97;;;0.47;;
13114;SDS011;6623;52.120;8.660;2022-12-29T06:12:52;0.73;;;0.50;;
13114;SDS011;6623;52.120;8.660;2022-12-29T06:15:17;0.73;;;0.40;;
13114;SDS011;6623;52.120;8.660;2022-12-29T06:17:43;1.50;;;0.40;;
13114;SDS011;6623;52.120;8.660;2022-12-29T06:20:09;0.87;;;0.50;;
13114;SDS011;6623;52.120;8.660;2022-12-29T06:22:35;0.60;;;0.40;;
13114;SDS011;6623;52.120;8.660;2022-12-29T06:25:01;1.30;;;0.77;;
13114;SDS011;6623;52.120;8.660;2022-12-29T06:27:28;1.57;;;0.60;;
13114;SDS011;6623;52.120;8.660;2022-12-29T06:29:53;0.73;;;0.40;;
13114;SDS011;6623;52.120;8.660;2022-12-29T06:32:19;1.27;;;0.30;;
13114;SDS011;6623;52.120;8.660;2022-12-29T06:34:45;1.20;;;0.40;;
13114;SDS011;6623;52.120;8.660;2022-12-29T06:37:11;1.60;;;0.30;;
13114;SDS011;6623;52.120;8.660;2022-12-29T06:39:36;1.03;;;0.40;;
13114;SDS011;6623;52.120;8.660;2022-12-29T06:42:02;0.60;;;0.30;;
13114;SDS011;6623;52.120;8.660;2022-12-29T06:44:28;1.00;;;0.70;;
13114;SDS011;6623;52.120;8.660;2022-12-29T06:46:53;2.63;;;0.50;;
13114;SDS011;6623;52.120;8.660;2022-12-29T06:49:19;1.63;;;0.30;;
13114;SDS011;6623;52.120;8.660;2022-12-29T06:51:44;1.90;;;0.47;;
13114;SDS011;6623;52.120;8.660;2022-12-29T06:54:10;1.03;;;0.40;;
13114;SDS011;6623;52.120;8.660;2022-12-29T06:56:36;0.73;;;0.40;;
13114;SDS011;6623;52.120;8.660;2022-12-29T06:59:01;0.90;;;0.40;;
13114;SDS011;6623;52.120;8.660;2022-12-29T07:01:28;1.33;;;0.50;;
13114;SDS011;6623;52.120;8.660;2022-12-29T07:03:53;0.93;;;0.50;;
13114;SDS011;6623;52.120;8.660;2022-12-29T07:06:19;0.77;;;0.57;;
13114;SDS011;6623;52.120;8.660;2022-12-29T07:08:44;0.93;;;0.60;;
13114;SDS011;6623;52.120;8.660;2022-12-29T07:11:10;1.40;;;0.50;;
13114;SDS011;6623;52.120;8.660;2022-12-29T07:13:35;0.97;;;0.50;;
13114;SDS011;6623;52.120;8.660;2022-12-29T07:16:05;1.00;;;0.70;;
13114;SDS011;6623;52.120;8.660;2022-12-29T07:18:34;0.63;;;0.60;;
13114;SDS011;6623;52.120;8.660;2022-12-29T07:21:00;0.90;;;0.70;;
13114;SDS011;6623;52.120;8.660;2022-12-29T07:23:26;1.40;;;0.70;;
13114;SDS011;6623;52.120;8.660;2022-12-29T07:25:58;1.33;;;0.83;;
13114;SDS011;6623;52.120;8.660;2022-12-29T07:28:28;2.90;;;0.87;;
13114;SDS011;6623;52.120;8.660;2022-12-29T07:30:54;1.90;;;0.87;;
13114;SDS011;6623;52.120;8.660;2022-12-29T07:33:20;1.20;;;1.00;;
13114;SDS011;6623;52.120;8.660;2022-12-29T07:35:45;3.43;;;1.00;;
13114;SDS011;6623;52.120;8.660;2022-12-29T07:38:11;2.10;;;0.63;;
13114;SDS011;6623;52.120;8.660;2022-12-29T07:40:37;2.63;;;0.80;;
13114;SDS011;6623;52.120;8.660;2022-12-29T07:43:02;1.40;;;0.70;;
13114;SDS011;6623;52.120;8.660;2022-12-29T07:45:29;3.53;;;1.10;;
13114;SDS011;6623;52.120;8.660;2022-12-29T07:47:54;3.07;;;0.90;;
13114;SDS011;6623;52.120;8.660;2022-12-29T07:50:20;3.50;;;1.20;;
13114;SDS011;6623;52.120;8.660;2022-12-29T07:52:45;4.40;;;0.90;;
13114;SDS011;6623;52.120;8.660;2022-12-29T07:55:12;3.50;;;0.90;;
13114;SDS011;6623;52.120;8.660;2022-12-29T07:57:39;2.97;;;1.10;;
13114;SDS011;6623;52.120;8.660;2022-12-29T08:00:04;3.07;;;0.90;;
13114;SDS011;6623;52.120;8.660;2022-12-29T08:02:30;2.27;;;0.80;;
13114;SDS011;6623;52.120;8.660;2022-12-29T08:04:56;4.67;;;0.93;;
13114;SDS011;6623;52.120;8.660;2022-12-29T08:07:22;5.43;;;1.10;;
13114;SDS011;6623;52.120;8.660;2022-12-29T08:09:47;2.03;;;0.90;;
13114;SDS011;6623;52.120;8.660;2022-12-29T08:12:13;3.47;;;1.00;;
13114;SDS011;6623;52.120;8.660;2022-12-29T08:14:38;5.27;;;1.20;;
13114;SDS011;6623;52.120;8.660;2022-12-29T08:17:04;4.13;;;1.47;;
13114;SDS011;6623;52.120;8.660;2022-12-29T08:19:29;4.83;;;2.33;;
13114;SDS011;6623;52.120;8.660;2022-12-29T08:21:55;5.57;;;1.80;;
13114;SDS011;6623;52.120;8.660;2022-12-29T08:24:20;4.60;;;1.40;;
13114;SDS011;6623;52.120;8.660;2022-12-29T08:26:46;1.93;;;0.90;;
13114;SDS011;6623;52.120;8.660;2022-12-29T08:29:11;7.40;;;1.10;;
13114;SDS011;6623;52.120;8.660;2022-12-29T08:31:37;2.53;;;0.83;;
13114;SDS011;6623;52.120;8.660;2022-12-29T08:34:03;2.93;;;0.90;;
13114;SDS011;6623;52.120;8.660;2022-12-29T08:36:29;2.20;;;0.90;;
13114;SDS011;6623;52.120;8.660;2022-12-29T08:38:55;3.07;;;0.90;;
13114;SDS011;6623;52.120;8.660;2022-12-29T08:41:21;2.90;;;0.90;;
13114;SDS011;6623;52.120;8.660;2022-12-29T08:43:47;2.67;;;1.10;;
13114;SDS011;6623;52.120;8.660;2022-12-29T08:46:14;1.77;;;0.70;;
13114;SDS011;6623;52.120;8.660;2022-12-29T08:48:40;3.97;;;1.07;;
13114;SDS011;6623;52.120;8.660;2022-12-29T08:51:06;2.83;;;1.33;;
13114;SDS011;6623;52.120;8.660;2022-12-29T08:53:32;1.77;;;1.00;;
13114;SDS011;6623;52.120;8.660;2022-12-29T08:55:59;3.23;;;1.20;;
13114;SDS011;6623;52.120;8.660;2022-12-29T08:58:25;2.03;;;1.00;;
13114;SDS011;6623;52.120;8.660;2022-12-29T09:00:54;3.13;;;0.97;;
13114;SDS011;6623;52.120;8.660;2022-12-29T09:03:20;1.43;;;0.90;;
13114;SDS011;6623;52.120;8.660;2022-12-29T09:05:51;3.30;;;1.07;;
13114;SDS011;6623;52.120;8.660;2022-12-29T09:08:20;3.10;;;1.00;;
13114;SDS011;6623;52.120;8.660;2022-12-29T09:10:47;4.33;;;1.30;;
13114;SDS011;6623;52.120;8.660;2022-12-29T09:13:14;2.27;;;1.00;;
13114;SDS011;6623;52.120;8.660;2022-12-29T09:15:40;3.40;;;1.30;;
13114;SDS011;6623;52.120;8.660;2022-12-29T09:18:09;3.73;;;1.13;;
13114;SDS011;6623;52.120;8.660;2022-12-29T09:20:35;4.60;;;1.10;;
13114;SDS011;6623;52.120;8.660;2022-12-29T09:23:01;2.70;;;1.07;;
13114;SDS011;6623;52.120;8.660;2022-12-29T09:25:26;2.00;;;1.10;;
13114;SDS011;6623;52.120;8.660;2022-12-29T09:27:52;3.50;;;1.53;;
13114;SDS011;6623;52.120;8.660;2022-12-29T09:30:19;2.60;;;1.33;;
13114;SDS011;6623;52.120;8.660;2022-12-29T09:32:46;2.53;;;1.40;;
13114;SDS011;6623;52.120;8.660;2022-12-29T09:35:12;4.53;;;2.17;;
13114;SDS011;6623;52.120;8.660;2022-12-29T09:37:38;4.13;;;2.20;;
13114;SDS011;6623;52.120;8.660;2022-12-29T09:40:05;6.33;;;1.57;;
13114;SDS011;6623;52.120;8.660;2022-12-29T09:47:39;4.83;;;3.33;;
13114;SDS011;6623;52.120;8.660;2022-12-29T09:50:12;10.03;;;6.60;;
13114;SDS011;6623;52.120;8.660;2022-12-29T09:52:44;6.63;;;4.27;;
13114;SDS011;6623;52.120;8.660;2022-12-29T09:55:33;6.17;;;1.90;;
13114;SDS011;6623;52.120;8.660;2022-12-29T09:58:11;4.13;;;1.90;;
13114;SDS011;6623;52.120;8.660;2022-12-29T10:00:47;9.93;;;5.60;;
13114;SDS011;6623;52.120;8.660;2022-12-29T10:03:19;10.63;;;6.77;;
13114;SDS011;6623;52.120;8.660;2022-12-29T10:08:42;4.17;;;2.03;;
13114;SDS011;6623;52.120;8.660;2022-12-29T10:11:23;3.87;;;1.53;;
13114;SDS011;6623;52.120;8.660;2022-12-29T10:14:04;4.93;;;1.60;;
13114;SDS011;6623;52.120;8.660;2022-12-29T10:19:48;2.17;;;1.00;;
13114;SDS011;6623;52.120;8.660;2022-12-29T10:22:32;4.53;;;1.30;;
13114;SDS011;6623;52.120;8.660;2022-12-29T10:25:17;6.10;;;1.20;;
13114;SDS011;6623;52.120;8.660;2022-12-29T10:27:47;2.70;;;0.90;;
13114;SDS011;6623;52.120;8.660;2022-12-29T10:30:14;3.47;;;0.90;;
13114;SDS011;6623;52.120;8.660;2022-12-29T10:32:43;2.50;;;1.00;;
13114;SDS011;6623;52.120;8.660;2022-12-29T10:35:26;6.73;;;1.60;;
13114;SDS011;6623;52.120;8.660;2022-12-29T10:40:46;5.03;;;1.00;;
13114;SDS011;6623;52.120;8.660;2022-12-29T10:45:53;3.33;;;1.17;;
13114;SDS011;6623;52.120;8.660;2022-12-29T10:48:25;3.53;;;1.17;;
13114;SDS011;6623;52.120;8.660;2022-12-29T10:50:56;7.00;;;1.67;;
13114;SDS011;6623;52.120;8.660;2022-12-29T10:53:24;3.50;;;1.30;;
13114;SDS011;6623;52.120;8.660;2022-12-29T10:55:55;6.00;;;1.37;;
13114;SDS011;6623;52.120;8.660;2022-12-29T10:58:23;3.90;;;1.00;;
13114;SDS011;6623;52.120;8.660;2022-12-29T11:00:53;4.13;;;1.13;;
13114;SDS011;6623;52.120;8.660;2022-12-29T11:03:41;4.27;;;0.97;;
13114;SDS011;6623;52.120;8.660;2022-12-29T11:06:17;5.93;;;1.40;;
13114;SDS011;6623;52.120;8.660;2022-12-29T11:09:01;5.47;;;1.17;;
13114;SDS011;6623;52.120;8.660;2022-12-29T11:11:35;4.53;;;1.10;;
13114;SDS011;6623;52.120;8.660;2022-12-29T11:14:03;4.40;;;1.13;;
13114;SDS011;6623;52.120;8.660;2022-12-29T11:16:39;5.40;;;0.90;;
13114;SDS011;6623;52.120;8.660;2022-12-29T11:19:09;2.17;;;1.00;;
13114;SDS011;6623;52.120;8.660;2022-12-29T11:21:48;6.33;;;1.30;;
13114;SDS011;6623;52.120;8.660;2022-12-29T11:24:19;5.13;;;1.30;;
13114;SDS011;6623;52.120;8.660;2022-12-29T11:26:50;3.83;;;0.93;;
13114;SDS011;6623;52.120;8.660;2022-12-29T11:29:36;3.70;;;1.13;;
13114;SDS011;6623;52.120;8.660;2022-12-29T11:32:11;5.80;;;1.30;;
13114;SDS011;6623;52.120;8.660;2022-12-29T11:34:42;4.60;;;1.17;;
13114;SDS011;6623;52.120;8.660;2022-12-29T11:37:12;4.37;;;1.30;;
13114;SDS011;6623;52.120;8.660;2022-12-29T11:39:50;4.17;;;1.03;;
13114;SDS011;6623;52.120;8.660;2022-12-29T11:42:34;4.20;;;1.00;;
13114;SDS011;6623;52.120;8.660;2022-12-29T11:45:03;3.43;;;1.10;;
13114;SDS011;6623;52.120;8.660;2022-12-29T11:47:31;6.37;;;1.20;;
13114;SDS011;6623;52.120;8.660;2022-12-29T11:50:03;3.30;;;1.00;;
13114;SDS011;6623;52.120;8.660;2022-12-29T11:52:33;4.23;;;1.10;;
13114;SDS011;6623;52.120;8.660;2022-12-29T11:55:04;3.97;;;1.10;;
13114;SDS011;6623;52.120;8.660;2022-12-29T11:57:32;3.73;;;1.20;;
13114;SDS011;6623;52.120;8.660;2022-12-29T11:59:59;5.37;;;1.00;;
13114;SDS011;6623;52.120;8.660;2022-12-29T12:08:19;6.07;;;1.33;;
13114;SDS011;6623;52.120;8.660;2022-12-29T12:11:10;3.43;;;1.00;;
13114;SDS011;6623;52.120;8.660;2022-12-29T12:14:01;3.50;;;1.20;;
13114;SDS011;6623;52.120;8.660;2022-12-29T12:16:41;4.83;;;1.17;;
13114;SDS011;6623;52.120;8.660;2022-12-29T12:21:56;3.93;;;1.17;;
13114;SDS011;6623;52.120;8.660;2022-12-29T12:27:02;6.27;;;1.00;;
13114;SDS011;6623;52.120;8.660;2022-12-29T12:29:40;3.30;;;0.80;;
13114;SDS011;6623;52.120;8.660;2022-12-29T12:32:12;3.17;;;1.20;;
13114;SDS011;6623;52.120;8.660;2022-12-29T12:34:52;3.33;;;1.20;;
13114;SDS011;6623;52.120;8.660;2022-12-29T13:02:28;4.20;;;1.00;;
13114;SDS011;6623;52.120;8.660;2022-12-29T13:05:35;5.57;;;1.40;;
13114;SDS011;6623;52.120;8.660;2022-12-29T13:08:34;5.00;;;1.40;;
13114;SDS011;6623;52.120;8.660;2022-12-29T13:11:16;3.90;;;1.07;;
13114;SDS011;6623;52.120;8.660;2022-12-29T13:13:57;4.87;;;1.47;;
13114;SDS011;6623;52.120;8.660;2022-12-29T13:16:36;3.17;;;1.00;;
13114;SDS011;6623;52.120;8.660;2022-12-29T13:19:28;4.47;;;1.30;;
13114;SDS011;6623;52.120;8.660;2022-12-29T13:22:34;4.60;;;1.20;;
13114;SDS011;6623;52.120;8.660;2022-12-29T13:30:30;3.23;;;1.10;;
13114;SDS011;6623;52.120;8.660;2022-12-29T13:35:54;4.70;;;1.50;;
13114;SDS011;6623;52.120;8.660;2022-12-29T13:38:41;3.13;;;1.37;;
13114;SDS011;6623;52.120;8.660;2022-12-29T13:41:29;3.80;;;1.23;;
13114;SDS011;6623;52.120;8.660;2022-12-29T13:44:00;4.30;;;1.33;;
13114;SDS011;6623;52.120;8.660;2022-12-29T13:46:29;5.97;;;1.37;;
13114;SDS011;6623;52.120;8.660;2022-12-29T13:51:51;4.67;;;1.40;;
13114;SDS011;6623;52.120;8.660;2022-12-29T13:59:50;5.33;;;1.60;;
13114;SDS011;6623;52.120;8.660;2022-12-29T14:07:43;5.60;;;1.20;;
13114;SDS011;6623;52.120;8.660;2022-12-29T14:15:38;4.80;;;1.10;;
13114;SDS011;6623;52.120;8.660;2022-12-29T14:18:13;5.77;;;1.47;;
13114;SDS011;6623;52.120;8.660;2022-12-29T14:20:51;8.87;;;1.67;;
13114;SDS011;6623;52.120;8.660;2022-12-29T14:23:27;5.33;;;1.10;;
13114;SDS011;6623;52.120;8.660;2022-12-29T14:31:04;4.40;;;1.60;;
13114;SDS011;6623;52.120;8.660;2022-12-29T14:33:39;5.93;;;1.30;;
13114;SDS011;6623;52.120;8.660;2022-12-29T14:38:51;6.47;;;1.50;;
13114;SDS011;6623;52.120;8.660;2022-12-29T14:41:24;3.40;;;1.47;;
13114;SDS011;6623;52.120;8.660;2022-12-29T14:43:58;5.50;;;1.17;;
13114;SDS011;6623;52.120;8.660;2022-12-29T14:46:41;4.80;;;1.40;;
13114;SDS011;6623;52.120;8.660;2022-12-29T14:49:20;2.73;;;1.03;;
13114;SDS011;6623;52.120;8.660;2022-12-29T14:51:50;4.80;;;1.40;;
13114;SDS011;6623;52.120;8.660;2022-12-29T14:54:34;6.60;;;1.90;;
13114;SDS011;6623;52.120;8.660;2022-12-29T14:57:11;9.67;;;1.87;;
13114;SDS011;6623;52.120;8.660;2022-12-29T14:59:43;4.07;;;1.87;;
13114;SDS011;6623;52.120;8.660;2022-12-29T15:02:14;4.43;;;1.43;;
13114;SDS011;6623;52.120;8.660;2022-12-29T15:04:43;5.37;;;1.17;;
13114;SDS011;6623;52.120;8.660;2022-12-29T15:07:11;6.67;;;2.00;;
13114;SDS011;6623;52.120;8.660;2022-12-29T15:09:45;7.40;;;1.70;;
13114;SDS011;6623;52.120;8.660;2022-12-29T15:12:42;5.20;;;1.53;;
13114;SDS011;6623;52.120;8.660;2022-12-29T15:15:20;5.43;;;1.50;;
13114;SDS011;6623;52.120;8.660;2022-12-29T15:17:46;5.73;;;1.43;;
13114;SDS011;6623;52.120;8.660;2022-12-29T15:20:17;4.60;;;1.50;;
13114;SDS011;6623;52.120;8.660;2022-12-29T15:22:54;4.03;;;1.60;;
13114;SDS011;6623;52.120;8.660;2022-12-29T15:25:28;6.17;;;1.40;;
13114;SDS011;6623;52.120;8.660;2022-12-29T15:27:57;3.73;;;1.27;;
13114;SDS011;6623;52.120;8.660;2022-12-29T15:30:28;6.93;;;1.40;;
13114;SDS011;6623;52.120;8.660;2022-12-29T15:32:54;7.50;;;1.73;;
13114;SDS011;6623;52.120;8.660;2022-12-29T15:35:24;7.13;;;1.70;;
13114;SDS011;6623;52.120;8.660;2022-12-29T15:37:56;5.07;;;1.23;;
13114;SDS011;6623;52.120;8.660;2022-12-29T15:45:34;5.33;;;1.50;;
13114;SDS011;6623;52.120;8.660;2022-12-29T15:48:00;8.70;;;1.70;;
13114;SDS011;6623;52.120;8.660;2022-12-29T15:50:31;5.07;;;1.60;;
13114;SDS011;6623;52.120;8.660;2022-12-29T15:52:58;4.23;;;1.53;;
13114;SDS011;6623;52.120;8.660;2022-12-29T15:55:30;3.53;;;1.50;;
13114;SDS011;6623;52.120;8.660;2022-12-29T15:57:59;4.63;;;1.30;;
13114;SDS011;6623;52.120;8.660;2022-12-29T16:00:33;5.90;;;1.50;;
13114;SDS011;6623;52.120;8.660;2022-12-29T16:03:02;4.07;;;1.37;;
13114;SDS011;6623;52.120;8.660;2022-12-29T16:05:38;7.20;;;1.63;;
13114;SDS011;6623;52.120;8.660;2022-12-29T16:10:32;5.70;;;1.40;;
13114;SDS011;6623;52.120;8.660;2022-12-29T16:13:03;4.70;;;1.40;;
13114;SDS011;6623;52.120;8.660;2022-12-29T16:15:35;2.90;;;1.20;;
13114;SDS011;6623;52.120;8.660;2022-12-29T16:18:00;5.63;;;1.33;;
13114;SDS011;6623;52.120;8.660;2022-12-29T16:20:41;4.70;;;1.50;;
13114;SDS011;6623;52.120;8.660;2022-12-29T16:23:21;2.93;;;1.40;;
13114;SDS011;6623;52.120;8.660;2022-12-29T16:25:49;6.37;;;1.50;;
13114;SDS011;6623;52.120;8.660;2022-12-29T16:28:19;5.97;;;2.10;;
13114;SDS011;6623;52.120;8.660;2022-12-29T16:30:56;4.93;;;1.60;;
13114;SDS011;6623;52.120;8.660;2022-12-29T16:33:39;4.90;;;1.47;;
13114;SDS011;6623;52.120;8.660;2022-12-29T16:38:49;4.20;;;1.30;;
13114;SDS011;6623;52.120;8.660;2022-12-29T16:41:30;7.67;;;1.50;;
13114;SDS011;6623;52.120;8.660;2022-12-29T16:44:12;6.53;;;1.50;;
13114;SDS011;6623;52.120;8.660;2022-12-29T16:46:44;5.60;;;1.53;;
13114;SDS011;6623;52.120;8.660;2022-12-29T16:49:27;5.93;;;1.77;;
13114;SDS011;6623;52.120;8.660;2022-12-29T16:51:53;9.93;;;1.83;;
13114;SDS011;6623;52.120;8.660;2022-12-29T16:54:21;6.13;;;1.50;;
13114;SDS011;6623;52.120;8.660;2022-12-29T16:56:49;3.40;;;1.47;;
13114;SDS011;6623;52.120;8.660;2022-12-29T16:59:35;3.63;;;1.60;;
13114;SDS011;6623;52.120;8.660;2022-12-29T17:02:08;6.03;;;1.57;;
13114;SDS011;6623;52.120;8.660;2022-12-29T17:04:39;3.57;;;1.10;;
13114;SDS011;6623;52.120;8.660;2022-12-29T17:07:09;4.43;;;1.43;;
13114;SDS011;6623;52.120;8.660;2022-12-29T17:09:41;7.27;;;1.80;;
13114;SDS011;6623;52.120;8.660;2022-12-29T17:12:07;4.47;;;1.30;;
13114;SDS011;6623;52.120;8.660;2022-12-29T17:14:40;5.53;;;1.70;;
13114;SDS011;6623;52.120;8.660;2022-12-29T17:17:18;6.20;;;2.03;;
13114;SDS011;6623;52.120;8.660;2022-12-29T17:20:00;7.30;;;1.90;;
13114;SDS011;6623;52.120;8.660;2022-12-29T17:22:29;5.23;;;1.40;;
13114;SDS011;6623;52.120;8.660;2022-12-29T17:26:57;3.40;;;1.33;;
13114;SDS011;6623;52.120;8.660;2022-12-29T17:29:32;5.03;;;1.40;;
13114;SDS011;6623;52.120;8.660;2022-12-29T17:32:02;3.83;;;1.70;;
13114;SDS011;6623;52.120;8.660;2022-12-29T17:34:29;6.13;;;1.50;;
13114;SDS011;6623;52.120;8.660;2022-12-29T17:36:55;2.87;;;1.33;;